createdAt,value
2022-07-25T00:00:51.579Z,20.20
2022-07-25T00:03:23.808Z,20.10
2022-07-25T00:06:01.673Z,19.90
2022-07-25T00:08:39.107Z,19.80
2022-07-25T00:11:17.799Z,19.80
2022-07-25T00:13:53.250Z,19.80
2022-07-25T00:16:28.528Z,19.70
2022-07-25T00:19:03.413Z,19.70
2022-07-25T00:21:42.045Z,19.80
2022-07-25T00:24:21.300Z,19.90
2022-07-25T00:27:02.241Z,20.00
2022-07-25T00:29:41.853Z,20.00
2022-07-25T00:32:42.314Z,19.90
2022-07-25T00:35:22.254Z,19.70
2022-07-25T00:38:22.495Z,19.70
2022-07-25T00:41:44.357Z,19.60
2022-07-25T00:44:51.450Z,19.50
2022-07-25T00:48:09.195Z,19.50
2022-07-25T00:50:47.020Z,19.50
2022-07-25T00:53:28.384Z,19.40
2022-07-25T00:56:02.580Z,19.40
2022-07-25T00:58:37.750Z,19.30
2022-07-25T01:01:18.383Z,19.20
2022-07-25T01:03:58.586Z,19.20
2022-07-25T01:06:38.990Z,19.20
2022-07-25T01:09:16.880Z,19.10
2022-07-25T01:11:59.905Z,19.00
2022-07-25T01:14:34.871Z,19.00
2022-07-25T01:17:13.371Z,18.90
2022-07-25T01:19:53.734Z,18.90
2022-07-25T01:25:53.492Z,18.70
2022-07-25T01:32:13.981Z,18.70
2022-07-25T01:38:14.473Z,18.60
2022-07-25T01:44:34.942Z,18.60
2022-07-25T01:47:55.306Z,18.60
2022-07-25T01:51:13.425Z,18.40
2022-07-25T01:56:46.940Z,18.20
2022-07-25T02:05:47.362Z,17.60
2022-07-25T02:09:05.307Z,17.50
2022-07-25T02:11:40.511Z,17.60
2022-07-25T02:14:19.652Z,17.50
2022-07-25T02:17:21.039Z,17.30
2022-07-25T02:20:02.101Z,17.30
2022-07-25T02:22:38.299Z,17.30
2022-07-25T02:25:10.521Z,17.20
2022-07-25T02:27:50.634Z,17.20
2022-07-25T02:30:31.126Z,17.10
2022-07-25T02:33:29.865Z,17.00
2022-07-25T02:36:52.378Z,16.80
2022-07-25T02:39:30.013Z,16.90
2022-07-25T02:45:49.318Z,16.90
2022-07-25T02:49:09.868Z,16.90
2022-07-25T02:52:27.529Z,16.70
2022-07-25T02:58:00.387Z,16.70
2022-07-25T03:04:20.881Z,16.80
2022-07-25T03:07:41.132Z,16.90
2022-07-25T03:11:01.430Z,16.80
2022-07-25T03:14:21.633Z,16.50
2022-07-25T03:17:41.969Z,16.80
2022-07-25T03:20:59.223Z,16.60
2022-07-25T03:26:32.839Z,16.50
2022-07-25T03:29:55.762Z,16.40
2022-07-25T03:35:31.454Z,16.40
2022-07-25T03:41:03.142Z,16.40
2022-07-25T03:44:23.710Z,16.50
2022-07-25T03:47:42.208Z,16.50
2022-07-25T03:53:14.338Z,16.60
2022-07-25T03:56:43.421Z,16.60
2022-07-25T04:02:36.531Z,16.80
2022-07-25T04:08:57.719Z,16.90
2022-07-25T04:12:18.435Z,16.90
2022-07-25T04:15:36.455Z,17.00
2022-07-25T04:21:09.174Z,17.30
2022-07-25T04:27:29.480Z,17.40
2022-07-25T04:30:49.898Z,17.30
2022-07-25T04:34:08.759Z,17.50
2022-07-25T04:37:30.240Z,17.60
2022-07-25T04:40:47.613Z,17.70
2022-07-25T04:46:21.924Z,17.70
2022-07-25T04:52:42.317Z,19.20
2022-07-25T04:56:02.962Z,19.20
2022-07-25T04:59:23.421Z,19.20
2022-07-25T05:02:41.423Z,19.30
2022-07-25T05:08:14.456Z,19.40
2022-07-25T05:11:36.509Z,19.50
2022-07-25T05:14:55.969Z,20.10
2022-07-25T05:18:13.252Z,20.40
2022-07-25T05:23:47.340Z,20.50
2022-07-25T05:30:08.387Z,20.60
2022-07-25T05:33:27.217Z,20.80
2022-07-25T05:35:59.188Z,20.80
2022-07-25T05:42:18.920Z,20.90
2022-07-25T05:45:39.468Z,20.70
2022-07-25T05:48:57.170Z,20.60
2022-07-25T05:54:31.419Z,20.70
2022-07-25T05:57:32.086Z,20.70
2022-07-25T06:00:08.309Z,20.70
2022-07-25T06:02:47.478Z,20.90
2022-07-25T06:05:23.711Z,20.90
2022-07-25T06:08:02.569Z,21.00
2022-07-25T06:10:40.421Z,21.20
2022-07-25T06:13:20.767Z,21.40
2022-07-25T06:15:52.796Z,21.60
2022-07-25T06:18:32.679Z,21.60
2022-07-25T06:21:07.832Z,21.80
2022-07-25T06:23:43.013Z,21.80
2022-07-25T06:26:22.236Z,21.90
2022-07-25T06:29:00.044Z,22.00
2022-07-25T06:31:32.718Z,22.20
2022-07-25T06:34:11.003Z,22.30
2022-07-25T06:36:49.463Z,22.40
2022-07-25T06:39:24.074Z,22.50
2022-07-25T06:45:43.917Z,23.10
2022-07-25T06:48:18.563Z,23.10
2022-07-25T06:51:00.034Z,23.30
2022-07-25T06:53:34.658Z,23.50
2022-07-25T06:56:17.690Z,23.70
2022-07-25T06:58:53.256Z,23.80
2022-07-25T07:01:25.681Z,23.70
2022-07-25T07:04:02.433Z,24.10
2022-07-25T07:06:41.797Z,24.10
2022-07-25T07:09:15.865Z,24.30
2022-07-25T07:11:55.718Z,24.20
2022-07-25T07:14:36.054Z,24.10
2022-07-25T07:17:16.282Z,24.10
2022-07-25T07:19:46.491Z,24.50
2022-07-25T07:22:19.155Z,25.10
2022-07-25T07:24:56.199Z,25.20
2022-07-25T07:27:31.570Z,25.20
2022-07-25T07:30:07.054Z,24.60
2022-07-25T07:32:41.397Z,25.20
2022-07-25T07:35:17.507Z,25.70
2022-07-25T07:37:48.809Z,26.00
2022-07-25T07:40:22.820Z,26.30
2022-07-25T07:43:02.307Z,26.20
2022-07-25T07:45:38.105Z,26.40
2022-07-25T07:48:14.039Z,26.10
2022-07-25T07:50:48.600Z,26.60
2022-07-25T07:53:45.742Z,26.80
2022-07-25T07:56:18.837Z,26.80
2022-07-25T07:58:55.788Z,26.50
2022-07-25T08:01:29.167Z,27.10
2022-07-25T08:04:06.730Z,27.40
2022-07-25T08:06:39.277Z,27.30
2022-07-25T08:09:12.565Z,27.50
2022-07-25T08:11:41.232Z,26.90
2022-07-25T08:14:14.216Z,27.40
2022-07-25T08:16:47.462Z,27.80
2022-07-25T08:19:19.693Z,27.60
2022-07-25T08:21:50.839Z,28.10
2022-07-25T08:24:23.949Z,28.10
2022-07-25T08:26:55.195Z,27.90
2022-07-25T08:29:34.413Z,28.40
2022-07-25T08:32:10.729Z,28.10
2022-07-25T08:34:45.004Z,28.00
2022-07-25T08:37:21.221Z,27.90
2022-07-25T08:39:55.366Z,28.40
2022-07-25T08:42:31.370Z,28.70
2022-07-25T08:45:10.744Z,29.00
2022-07-25T08:47:46.539Z,28.70
2022-07-25T08:50:25.652Z,29.00
2022-07-25T08:53:30.242Z,29.10
2022-07-25T08:55:55.907Z,29.00
2022-07-25T08:58:32.214Z,29.20
2022-07-25T09:01:06.129Z,29.10
2022-07-25T09:03:42.576Z,29.50
2022-07-25T09:06:21.664Z,28.90
2022-07-25T09:08:58.284Z,29.70
2022-07-25T09:11:36.408Z,29.20
2022-07-25T09:14:15.256Z,29.60
2022-07-25T09:16:51.808Z,29.50
2022-07-25T09:19:27.620Z,29.20
2022-07-25T09:22:07.022Z,29.90
2022-07-25T09:24:47.862Z,30.20
2022-07-25T09:27:26.804Z,30.00
2022-07-25T09:30:03.444Z,30.60
2022-07-25T09:32:36.532Z,30.40
2022-07-25T09:35:13.720Z,30.60
2022-07-25T09:37:47.001Z,30.90
2022-07-25T09:40:23.653Z,30.70
2022-07-25T09:42:57.101Z,30.80
2022-07-25T09:45:33.924Z,30.90
2022-07-25T09:48:07.392Z,31.50
2022-07-25T09:50:44.120Z,31.40
2022-07-25T09:53:17.447Z,31.20
2022-07-25T09:55:55.157Z,31.10
2022-07-25T09:58:27.490Z,31.20
2022-07-25T10:01:07.535Z,31.90
2022-07-25T10:03:53.027Z,31.70
2022-07-25T10:06:38.995Z,31.30
2022-07-25T10:09:17.531Z,31.80
2022-07-25T10:12:08.716Z,32.10
2022-07-25T10:15:07.896Z,32.30
2022-07-25T10:17:44.819Z,31.80
2022-07-25T10:20:18.224Z,31.20
2022-07-25T10:22:58.605Z,32.80
2022-07-25T10:28:15.305Z,33.40
2022-07-25T10:30:48.427Z,32.30
2022-07-25T10:33:25.384Z,32.60
2022-07-25T10:36:08.515Z,32.70
2022-07-25T10:38:45.432Z,32.90
2022-07-25T10:41:18.824Z,32.80
2022-07-25T10:43:55.697Z,33.00
2022-07-25T10:46:34.988Z,33.00
2022-07-25T10:49:10.935Z,33.50
2022-07-25T10:51:59.569Z,33.10
2022-07-25T10:54:37.070Z,33.00
2022-07-25T10:57:16.399Z,33.30
2022-07-25T10:59:47.453Z,33.20
2022-07-25T11:02:20.904Z,33.10
2022-07-25T11:05:02.915Z,33.20
2022-07-25T11:07:37.058Z,33.30
2022-07-25T11:10:12.275Z,33.00
2022-07-25T11:12:46.792Z,33.00
2022-07-25T11:15:25.784Z,32.90
2022-07-25T11:17:57.081Z,33.20
2022-07-25T11:20:33.265Z,33.70
2022-07-25T11:23:07.335Z,33.90
2022-07-25T11:25:43.692Z,33.30
2022-07-25T11:28:17.566Z,33.70
2022-07-25T11:30:54.220Z,34.20
2022-07-25T11:33:27.831Z,34.10
2022-07-25T11:36:05.180Z,34.10
2022-07-25T11:38:44.303Z,33.60
2022-07-25T11:41:18.427Z,34.30
2022-07-25T11:43:58.593Z,35.00
2022-07-25T11:46:47.279Z,34.60
2022-07-25T11:49:19.642Z,34.50
2022-07-25T11:51:58.259Z,34.50
2022-07-25T11:57:28.045Z,34.80
2022-07-25T12:00:02.972Z,34.20
2022-07-25T12:02:41.016Z,34.70
2022-07-25T12:05:20.777Z,35.10
2022-07-25T12:11:40.775Z,34.80
2022-07-25T12:17:42.100Z,35.00
2022-07-25T12:24:03.177Z,34.90
2022-07-25T12:27:24.646Z,35.70
2022-07-25T12:30:41.814Z,35.20
2022-07-25T12:36:15.129Z,35.80
2022-07-25T12:42:36.962Z,36.30
2022-07-25T12:45:57.924Z,35.50
2022-07-25T12:49:15.279Z,35.20
2022-07-25T12:54:48.896Z,35.30
2022-07-25T12:58:19.509Z,35.20
2022-07-25T13:00:50.747Z,35.70
2022-07-25T13:03:22.047Z,34.50
2022-07-25T13:06:21.259Z,34.80
2022-07-25T13:12:41.416Z,35.40
2022-07-25T13:18:42.356Z,35.90
2022-07-25T13:22:04.276Z,35.50
2022-07-25T13:28:03.388Z,35.70
2022-07-25T13:31:13.670Z,35.80
2022-07-25T13:34:31.080Z,36.70
2022-07-25T13:40:03.832Z,35.70
2022-07-25T13:46:24.210Z,35.80
2022-07-25T13:49:44.765Z,35.90
2022-07-25T13:53:05.301Z,36.60
2022-07-25T13:56:25.585Z,36.20
2022-07-25T13:59:43.283Z,36.30
2022-07-25T14:05:16.482Z,37.20
2022-07-25T14:11:38.408Z,35.60
2022-07-25T14:14:58.700Z,35.60
2022-07-25T14:18:19.150Z,36.80
2022-07-25T14:21:37.120Z,36.90
2022-07-25T14:27:10.010Z,36.10
2022-07-25T14:33:30.661Z,35.50
2022-07-25T14:36:50.894Z,35.90
2022-07-25T14:40:08.176Z,36.10
2022-07-25T14:45:41.742Z,36.20
2022-07-25T14:49:12.184Z,35.80
2022-07-25T14:52:31.157Z,36.20
2022-07-25T14:58:03.827Z,35.70
2022-07-25T15:04:25.433Z,36.30
2022-07-25T15:07:45.761Z,36.30
2022-07-25T15:11:03.198Z,36.00
2022-07-25T15:16:37.614Z,35.90
2022-07-25T15:22:57.930Z,35.90
2022-07-25T15:26:18.607Z,35.80
2022-07-25T15:29:38.622Z,36.00
2022-07-25T15:32:56.289Z,36.00
2022-07-25T15:38:29.435Z,35.70
2022-07-25T15:45:03.853Z,35.60
2022-07-25T15:48:31.552Z,36.20
2022-07-25T15:51:50.201Z,35.80
2022-07-25T15:57:22.706Z,35.50
2022-07-25T16:02:53.241Z,35.50
2022-07-25T16:06:18.677Z,35.90
2022-07-25T16:08:56.000Z,35.90
2022-07-25T16:15:14.802Z,35.30
2022-07-25T16:18:35.553Z,35.30
2022-07-25T16:21:53.299Z,35.90
2022-07-25T16:27:26.631Z,35.30
2022-07-25T16:33:47.544Z,35.30
2022-07-25T16:37:07.805Z,35.70
2022-07-25T16:39:45.810Z,35.10
2022-07-25T16:42:18.199Z,35.80
2022-07-25T16:44:57.420Z,35.90
2022-07-25T16:51:18.402Z,35.30
2022-07-25T16:54:39.387Z,35.10
2022-07-25T16:57:58.033Z,34.80
2022-07-25T17:03:31.261Z,35.00
2022-07-25T17:09:51.704Z,34.90
2022-07-25T17:12:32.502Z,35.30
2022-07-25T17:15:13.959Z,35.10
2022-07-25T17:17:51.416Z,35.00
2022-07-25T17:20:30.038Z,34.60
2022-07-25T17:26:02.836Z,34.00
2022-07-25T17:29:02.986Z,34.20
2022-07-25T17:31:33.680Z,34.30
2022-07-25T17:34:02.013Z,33.70
2022-07-25T17:36:30.393Z,33.50
2022-07-25T17:38:58.580Z,33.10
2022-07-25T17:41:26.706Z,33.20
2022-07-25T17:43:54.821Z,33.60
2022-07-25T17:46:23.171Z,33.10
2022-07-25T17:48:52.770Z,32.80
2022-07-25T17:51:21.056Z,32.70
2022-07-25T17:53:49.171Z,32.90
2022-07-25T17:56:17.470Z,32.90
2022-07-25T17:58:45.691Z,32.40
2022-07-25T18:01:13.870Z,32.30
2022-07-25T18:03:42.073Z,32.20
2022-07-25T18:06:11.974Z,32.30
2022-07-25T18:08:40.178Z,32.10
2022-07-25T18:11:08.364Z,32.10
2022-07-25T18:13:36.670Z,31.70
2022-07-25T18:16:05.065Z,30.80
2022-07-25T18:18:33.310Z,30.80
2022-07-25T18:21:01.514Z,30.10
2022-07-25T18:23:31.021Z,29.40
2022-07-25T18:25:59.283Z,29.60
2022-07-25T18:28:27.554Z,29.10
2022-07-25T18:30:55.788Z,29.10
2022-07-25T18:33:24.009Z,28.60
2022-07-25T18:35:52.438Z,28.30
2022-07-25T18:38:20.887Z,28.20
2022-07-25T18:41:06.481Z,28.00
2022-07-25T18:43:38.683Z,27.80
2022-07-25T18:46:07.527Z,27.70
2022-07-25T18:48:38.022Z,27.70
2022-07-25T18:51:06.503Z,28.00
2022-07-25T18:53:34.924Z,27.80
2022-07-25T18:56:06.039Z,27.80
2022-07-25T18:58:34.627Z,27.40
2022-07-25T19:01:03.478Z,27.50
2022-07-25T19:03:33.958Z,27.60
2022-07-25T19:06:03.587Z,27.40
2022-07-25T19:08:32.193Z,27.10
2022-07-25T19:11:00.441Z,26.90
2022-07-25T19:13:48.986Z,26.60
2022-07-25T19:16:19.125Z,26.70
2022-07-25T19:18:47.924Z,26.40
2022-07-25T19:21:16.922Z,26.40
2022-07-25T19:23:50.458Z,26.30
2022-07-25T19:26:19.641Z,26.20
2022-07-25T19:28:50.225Z,26.20
2022-07-25T19:31:18.739Z,26.20
2022-07-25T19:33:47.228Z,26.10
2022-07-25T19:36:16.312Z,26.10
2022-07-25T19:38:45.069Z,26.00
2022-07-25T19:41:14.483Z,26.00
2022-07-25T19:43:42.894Z,26.00
2022-07-25T19:46:12.562Z,26.00
2022-07-25T19:48:40.962Z,25.90
2022-07-25T19:51:09.340Z,25.90
2022-07-25T19:53:38.254Z,25.80
2022-07-25T19:56:08.405Z,25.80
2022-07-25T19:58:38.887Z,25.80
2022-07-25T20:01:08.893Z,25.90
2022-07-25T20:03:38.646Z,25.90
2022-07-25T20:06:08.554Z,25.80
2022-07-25T20:08:39.461Z,25.70
2022-07-25T20:11:08.379Z,25.50
2022-07-25T20:13:36.654Z,25.30
2022-07-25T20:16:05.871Z,25.30
2022-07-25T20:18:34.147Z,25.20
2022-07-25T20:21:03.862Z,25.20
2022-07-25T20:23:32.109Z,25.10
2022-07-25T20:26:02.308Z,25.10
2022-07-25T20:28:30.858Z,25.10
2022-07-25T20:30:59.437Z,25.00
2022-07-25T20:33:27.963Z,25.30
2022-07-25T20:35:56.178Z,25.40
2022-07-25T20:38:28.365Z,25.30
2022-07-25T20:40:57.093Z,25.30
2022-07-25T20:43:25.517Z,25.20
2022-07-25T20:45:55.696Z,24.90
2022-07-25T20:48:24.111Z,24.80
2022-07-25T20:50:52.292Z,24.70
2022-07-25T20:53:20.919Z,24.50
2022-07-25T20:55:50.479Z,23.80
2022-07-25T20:58:18.724Z,23.50
2022-07-25T21:00:47.607Z,24.10
2022-07-25T21:03:16.797Z,24.30
2022-07-25T21:05:44.931Z,23.30
2022-07-25T21:08:13.055Z,23.60
2022-07-25T21:10:41.201Z,23.20
2022-07-25T21:13:10.747Z,23.00
2022-07-25T21:15:38.948Z,22.40
2022-07-25T21:18:07.284Z,22.10
2022-07-25T21:20:37.371Z,21.70
2022-07-25T21:23:06.623Z,21.40
2022-07-25T21:25:34.801Z,21.50
2022-07-25T21:28:03.028Z,21.40
2022-07-25T21:30:32.602Z,21.90
2022-07-25T21:33:00.788Z,21.70
2022-07-25T21:35:29.172Z,21.40
2022-07-25T21:37:58.645Z,21.50
2022-07-25T21:40:27.162Z,21.20
2022-07-25T21:42:55.396Z,21.00
2022-07-25T21:45:23.840Z,20.80
2022-07-25T21:47:53.525Z,20.70
2022-07-25T21:50:42.185Z,20.50
2022-07-25T21:53:14.435Z,20.80
2022-07-25T21:55:42.702Z,20.70
2022-07-25T21:58:10.808Z,20.50
2022-07-25T22:00:41.804Z,20.30
2022-07-25T22:03:15.514Z,20.70
2022-07-25T22:05:43.770Z,21.60
2022-07-25T22:08:11.898Z,20.40
2022-07-25T22:10:40.057Z,20.10
2022-07-25T22:13:12.616Z,19.70
2022-07-25T22:15:41.165Z,19.50
2022-07-25T22:18:09.608Z,19.50
2022-07-25T22:20:39.320Z,19.30
2022-07-25T22:23:08.403Z,19.30
2022-07-25T22:25:36.599Z,19.10
2022-07-25T22:28:04.841Z,19.10
2022-07-25T22:30:34.773Z,19.20
2022-07-25T22:33:02.887Z,19.10
2022-07-25T22:35:31.160Z,18.60
2022-07-25T22:38:00.698Z,18.50
2022-07-25T22:40:28.842Z,18.40
2022-07-25T22:42:56.960Z,18.50
2022-07-25T22:45:25.156Z,18.40
2022-07-25T22:47:53.405Z,19.10
2022-07-25T22:50:21.733Z,18.90
2022-07-25T22:52:49.898Z,18.20
2022-07-25T22:55:19.408Z,18.20
2022-07-25T22:57:49.666Z,18.20
2022-07-25T23:00:18.672Z,18.20
2022-07-25T23:02:46.885Z,18.00
2022-07-25T23:05:16.133Z,18.50
2022-07-25T23:07:44.234Z,19.00
2022-07-25T23:10:12.529Z,19.30
2022-07-25T23:12:42.100Z,18.60
2022-07-25T23:15:10.607Z,18.70
2022-07-25T23:17:38.789Z,18.20
2022-07-25T23:20:08.207Z,17.90
2022-07-25T23:22:36.459Z,17.90
2022-07-25T23:25:05.491Z,18.00
2022-07-25T23:27:34.895Z,18.30
2022-07-25T23:30:05.772Z,18.60
2022-07-25T23:32:34.109Z,18.20
2022-07-25T23:35:02.356Z,18.10
2022-07-25T23:37:30.507Z,17.90
2022-07-25T23:39:58.588Z,17.90
2022-07-25T23:42:26.878Z,18.00
2022-07-25T23:44:54.990Z,18.10
2022-07-25T23:47:36.778Z,18.20
2022-07-25T23:50:09.489Z,18.10
2022-07-25T23:52:37.610Z,18.70
2022-07-25T23:55:06.503Z,18.60
2022-07-25T23:57:35.244Z,18.20
